createdAt,value
2023-04-13T00:01:52.160Z,217.03
2023-04-13T00:11:55.557Z,221.23
2023-04-13T00:22:00.873Z,218.53
2023-04-13T00:32:04.469Z,203.80
2023-04-13T00:42:09.416Z,209.03
2023-04-13T00:52:14.119Z,214.43
2023-04-13T01:02:19.108Z,214.10
2023-04-13T01:12:30.785Z,219.87
2023-04-13T01:22:41.826Z,210.47
2023-04-13T01:32:46.942Z,210.80
2023-04-13T01:42:50.873Z,209.83
2023-04-13T01:53:08.106Z,209.37
2023-04-13T02:03:15.608Z,213.43
2023-04-13T02:13:21.055Z,202.47
2023-04-13T02:23:24.676Z,203.70
2023-04-13T02:33:31.498Z,207.67
2023-04-13T02:43:35.710Z,205.13
2023-04-13T02:53:41.370Z,203.70
2023-04-13T03:03:45.712Z,204.33
2023-04-13T03:13:54.279Z,198.03
2023-04-13T03:23:59.498Z,209.80
2023-04-13T03:34:04.763Z,205.40
2023-04-13T03:44:10.084Z,203.67
2023-04-13T03:54:16.770Z,202.67
2023-04-13T04:04:21.676Z,209.83
2023-04-13T04:14:29.623Z,202.57
2023-04-13T04:24:42.506Z,213.13
2023-04-13T04:34:52.783Z,213.37
2023-04-13T04:44:58.672Z,218.10
2023-04-13T04:55:07.455Z,213.23
2023-04-13T05:05:13.061Z,223.30
2023-04-13T05:15:18.074Z,229.87
2023-04-13T05:25:21.868Z,240.60
2023-04-13T05:35:28.119Z,235.23
2023-04-13T05:45:33.185Z,248.93
2023-04-13T05:55:47.575Z,245.63
2023-04-13T06:05:54.786Z,246.50
2023-04-13T06:16:00.432Z,244.23
2023-04-13T06:26:05.728Z,249.87
2023-04-13T06:36:25.652Z,260.53
2023-04-13T06:46:31.531Z,241.27
2023-04-13T06:56:43.380Z,251.60
2023-04-13T07:06:47.908Z,239.53
2023-04-13T07:16:53.422Z,238.27
2023-04-13T07:26:59.028Z,240.83
2023-04-13T07:37:03.890Z,240.70
2023-04-13T07:47:08.123Z,239.57
2023-04-13T07:57:13.240Z,248.03
2023-04-13T08:07:23.217Z,243.60
2023-04-13T08:17:28.221Z,246.87
2023-04-13T08:27:32.750Z,236.63
2023-04-13T08:37:39.577Z,224.90
2023-04-13T08:47:44.336Z,231.23
2023-04-13T08:57:51.880Z,230.20
2023-04-13T09:07:58.888Z,223.80
2023-04-13T09:18:12.709Z,232.73
2023-04-13T09:28:21.976Z,228.47
2023-04-13T09:38:33.113Z,230.90
2023-04-13T09:48:36.583Z,223.38
2023-04-13T09:58:46.325Z,209.18
2023-04-13T10:08:49.854Z,214.65
2023-04-13T10:19:02.049Z,216.50
2023-04-13T10:29:06.666Z,209.63
2023-04-13T10:39:11.908Z,214.55
2023-04-13T10:49:15.421Z,210.63
2023-04-13T10:59:21.181Z,209.05
2023-04-13T11:09:24.653Z,196.80
2023-04-13T11:19:29.460Z,184.60
2023-04-13T11:29:33.204Z,181.02
2023-04-13T11:39:40.040Z,189.38
2023-04-13T11:49:47.942Z,183.48
2023-04-13T11:59:54.347Z,180.93
2023-04-13T12:09:59.571Z,184.52
2023-04-13T12:20:16.301Z,183.65
2023-04-13T12:30:21.761Z,186.68
2023-04-13T12:40:26.564Z,190.73
2023-04-13T12:50:31.319Z,199.13
2023-04-13T13:00:37.325Z,194.73
2023-04-13T13:10:43.117Z,201.25
2023-04-13T13:20:49.426Z,202.95
2023-04-13T13:30:52.804Z,213.98
2023-04-13T13:40:57.636Z,215.27
2023-04-13T13:51:02.094Z,218.33
2023-04-13T14:01:09.003Z,219.43
2023-04-13T14:11:12.751Z,210.13
2023-04-13T14:21:21.387Z,220.83
2023-04-13T14:31:24.821Z,218.57
2023-04-13T14:41:29.657Z,220.57
2023-04-13T14:51:33.654Z,219.67
2023-04-13T15:01:38.377Z,222.70
2023-04-13T15:11:41.972Z,223.03
2023-04-13T15:21:46.721Z,232.83
2023-04-13T15:31:51.866Z,231.00
2023-04-13T15:41:57.886Z,227.47
2023-04-13T15:52:01.348Z,231.73
2023-04-13T16:02:06.257Z,217.93
2023-04-13T16:12:10.974Z,223.73
2023-04-13T16:22:16.388Z,227.37
2023-04-13T16:32:19.900Z,223.60
2023-04-13T16:42:24.731Z,232.93
2023-04-13T16:52:28.174Z,234.23
2023-04-13T17:02:33.273Z,239.47
2023-04-13T17:12:37.370Z,236.70
2023-04-13T17:22:42.461Z,231.07
2023-04-13T17:32:46.466Z,245.90
2023-04-13T17:42:51.639Z,228.67
2023-04-13T17:52:55.067Z,240.00
2023-04-13T18:03:01.611Z,234.67
2023-04-13T18:13:06.606Z,231.43
2023-04-13T18:23:11.470Z,232.43
2023-04-13T18:33:14.998Z,237.70
2023-04-13T18:43:20.010Z,239.60
2023-04-13T18:53:23.413Z,239.50
2023-04-13T19:03:28.430Z,246.40
2023-04-13T19:13:32.187Z,238.77
2023-04-13T19:23:39.638Z,241.67
2023-04-13T19:33:46.194Z,245.50
2023-04-13T19:43:52.337Z,239.40
2023-04-13T19:53:57.657Z,242.60
2023-04-13T20:04:05.164Z,252.87
2023-04-13T20:14:09.785Z,250.57
2023-04-13T20:24:14.683Z,251.90
2023-04-13T20:34:20.246Z,242.67
2023-04-13T20:44:25.831Z,250.40
2023-04-13T20:54:29.526Z,236.47
2023-04-13T21:04:34.411Z,238.77
2023-04-13T21:14:37.759Z,239.80
2023-04-13T21:24:42.585Z,240.37
2023-04-13T21:34:46.267Z,237.90
2023-04-13T21:44:51.092Z,242.13
2023-04-13T21:54:54.568Z,246.77
2023-04-13T22:04:59.305Z,241.57
2023-04-13T22:15:02.828Z,244.00
2023-04-13T22:25:08.279Z,244.33
2023-04-13T22:35:12.239Z,247.70
2023-04-13T22:45:16.959Z,265.37
2023-04-13T22:55:21.198Z,258.70
2023-04-13T23:05:26.018Z,248.23
2023-04-13T23:15:29.451Z,253.57
2023-04-13T23:25:34.171Z,253.83
2023-04-13T23:35:37.545Z,249.07
2023-04-13T23:45:42.740Z,250.40
2023-04-13T23:55:46.210Z,253.07
